sensor_id;sensor_type;location;lat;lon;timestamp;P1;durP1;ratioP1;P2;durP2;ratioP2
41685;SDS011;27370;42.764;23.432;2024-03-29T00:01:15;4.28;;;1.70;;
41685;SDS011;27370;42.764;23.432;2024-03-29T00:03:40;3.22;;;1.30;;
41685;SDS011;27370;42.764;23.432;2024-03-29T00:06:07;3.00;;;1.13;;
41685;SDS011;27370;42.764;23.432;2024-03-29T00:08:32;4.55;;;1.35;;
41685;SDS011;27370;42.764;23.432;2024-03-29T00:10:58;2.65;;;1.00;;
41685;SDS011;27370;42.764;23.432;2024-03-29T00:13:23;1.67;;;0.98;;
41685;SDS011;27370;42.764;23.432;2024-03-29T00:15:49;2.13;;;0.70;;
41685;SDS011;27370;42.764;23.432;2024-03-29T00:18:14;3.28;;;1.05;;
41685;SDS011;27370;42.764;23.432;2024-03-29T00:20:39;2.08;;;0.88;;
41685;SDS011;27370;42.764;23.432;2024-03-29T00:23:05;1.65;;;0.88;;
41685;SDS011;27370;42.764;23.432;2024-03-29T00:25:30;4.35;;;1.00;;
41685;SDS011;27370;42.764;23.432;2024-03-29T00:27:56;5.97;;;1.25;;
41685;SDS011;27370;42.764;23.432;2024-03-29T00:30:21;2.70;;;0.75;;
41685;SDS011;27370;42.764;23.432;2024-03-29T00:32:46;1.25;;;0.93;;
41685;SDS011;27370;42.764;23.432;2024-03-29T00:35:12;2.70;;;0.90;;
41685;SDS011;27370;42.764;23.432;2024-03-29T00:37:39;2.00;;;0.80;;
41685;SDS011;27370;42.764;23.432;2024-03-29T00:40:05;4.18;;;0.93;;
41685;SDS011;27370;42.764;23.432;2024-03-29T00:42:31;3.25;;;1.50;;
41685;SDS011;27370;42.764;23.432;2024-03-29T00:44:56;3.88;;;1.60;;
41685;SDS011;27370;42.764;23.432;2024-03-29T00:47:22;2.25;;;0.80;;
41685;SDS011;27370;42.764;23.432;2024-03-29T00:49:47;3.22;;;1.10;;
41685;SDS011;27370;42.764;23.432;2024-03-29T00:52:13;4.10;;;0.70;;
41685;SDS011;27370;42.764;23.432;2024-03-29T00:54:38;5.75;;;0.73;;
41685;SDS011;27370;42.764;23.432;2024-03-29T00:57:04;2.35;;;0.88;;
41685;SDS011;27370;42.764;23.432;2024-03-29T00:59:31;3.78;;;1.48;;
41685;SDS011;27370;42.764;23.432;2024-03-29T01:01:56;0.57;;;0.35;;
41685;SDS011;27370;42.764;23.432;2024-03-29T01:04:22;2.30;;;0.60;;
41685;SDS011;27370;42.764;23.432;2024-03-29T01:06:47;1.35;;;0.70;;
41685;SDS011;27370;42.764;23.432;2024-03-29T01:09:13;1.45;;;0.70;;
41685;SDS011;27370;42.764;23.432;2024-03-29T01:11:38;2.15;;;0.70;;
41685;SDS011;27370;42.764;23.432;2024-03-29T01:14:07;0.98;;;0.50;;
41685;SDS011;27370;42.764;23.432;2024-03-29T01:16:32;2.17;;;0.50;;
41685;SDS011;27370;42.764;23.432;2024-03-29T01:18:58;1.80;;;0.40;;
41685;SDS011;27370;42.764;23.432;2024-03-29T01:21:24;1.02;;;0.40;;
41685;SDS011;27370;42.764;23.432;2024-03-29T01:23:51;3.78;;;0.98;;
41685;SDS011;27370;42.764;23.432;2024-03-29T01:26:16;0.75;;;0.50;;
41685;SDS011;27370;42.764;23.432;2024-03-29T01:28:42;4.55;;;0.82;;
41685;SDS011;27370;42.764;23.432;2024-03-29T01:31:08;1.38;;;0.85;;
41685;SDS011;27370;42.764;23.432;2024-03-29T01:33:34;4.65;;;0.55;;
41685;SDS011;27370;42.764;23.432;2024-03-29T01:36:03;2.05;;;0.55;;
41685;SDS011;27370;42.764;23.432;2024-03-29T01:38:29;2.15;;;0.50;;
41685;SDS011;27370;42.764;23.432;2024-03-29T01:40:55;4.75;;;0.75;;
41685;SDS011;27370;42.764;23.432;2024-03-29T01:43:20;1.20;;;0.60;;
41685;SDS011;27370;42.764;23.432;2024-03-29T01:45:47;3.58;;;0.82;;
41685;SDS011;27370;42.764;23.432;2024-03-29T01:48:13;2.30;;;0.75;;
41685;SDS011;27370;42.764;23.432;2024-03-29T01:50:39;3.47;;;0.60;;
41685;SDS011;27370;42.764;23.432;2024-03-29T01:53:05;1.90;;;0.43;;
41685;SDS011;27370;42.764;23.432;2024-03-29T01:55:32;3.30;;;0.60;;
41685;SDS011;27370;42.764;23.432;2024-03-29T01:57:58;0.88;;;0.28;;
41685;SDS011;27370;42.764;23.432;2024-03-29T02:00:24;2.58;;;0.75;;
41685;SDS011;27370;42.764;23.432;2024-03-29T02:02:51;4.50;;;0.70;;
41685;SDS011;27370;42.764;23.432;2024-03-29T02:05:17;0.93;;;0.40;;
41685;SDS011;27370;42.764;23.432;2024-03-29T02:07:43;2.67;;;0.52;;
41685;SDS011;27370;42.764;23.432;2024-03-29T02:10:11;2.92;;;0.88;;
41685;SDS011;27370;42.764;23.432;2024-03-29T02:12:38;1.70;;;0.40;;
41685;SDS011;27370;42.764;23.432;2024-03-29T02:15:04;0.93;;;0.43;;
41685;SDS011;27370;42.764;23.432;2024-03-29T02:17:31;3.03;;;0.73;;
41685;SDS011;27370;42.764;23.432;2024-03-29T02:19:57;1.15;;;0.50;;
41685;SDS011;27370;42.764;23.432;2024-03-29T02:22:22;3.20;;;0.55;;
41685;SDS011;27370;42.764;23.432;2024-03-29T02:24:49;4.57;;;2.45;;
41685;SDS011;27370;42.764;23.432;2024-03-29T02:27:14;1.08;;;0.60;;
41685;SDS011;27370;42.764;23.432;2024-03-29T02:29:41;1.42;;;0.50;;
41685;SDS011;27370;42.764;23.432;2024-03-29T02:32:07;4.57;;;2.05;;
41685;SDS011;27370;42.764;23.432;2024-03-29T02:34:32;2.45;;;1.77;;
41685;SDS011;27370;42.764;23.432;2024-03-29T02:36:58;5.43;;;2.25;;
41685;SDS011;27370;42.764;23.432;2024-03-29T02:39:24;8.80;;;2.75;;
41685;SDS011;27370;42.764;23.432;2024-03-29T02:41:49;3.83;;;1.63;;
41685;SDS011;27370;42.764;23.432;2024-03-29T02:44:15;5.78;;;2.22;;
41685;SDS011;27370;42.764;23.432;2024-03-29T02:46:41;5.72;;;2.13;;
41685;SDS011;27370;42.764;23.432;2024-03-29T02:49:09;6.00;;;2.35;;
41685;SDS011;27370;42.764;23.432;2024-03-29T02:51:35;2.13;;;0.85;;
41685;SDS011;27370;42.764;23.432;2024-03-29T02:54:01;2.38;;;1.15;;
41685;SDS011;27370;42.764;23.432;2024-03-29T02:56:26;4.13;;;1.10;;
41685;SDS011;27370;42.764;23.432;2024-03-29T02:58:52;4.55;;;1.42;;
41685;SDS011;27370;42.764;23.432;2024-03-29T03:01:18;3.03;;;1.23;;
41685;SDS011;27370;42.764;23.432;2024-03-29T03:03:43;4.22;;;1.50;;
41685;SDS011;27370;42.764;23.432;2024-03-29T03:06:09;6.22;;;1.85;;
41685;SDS011;27370;42.764;23.432;2024-03-29T03:08:34;3.55;;;1.13;;
41685;SDS011;27370;42.764;23.432;2024-03-29T03:11:18;7.70;;;1.55;;
41685;SDS011;27370;42.764;23.432;2024-03-29T03:13:43;2.72;;;1.05;;
41685;SDS011;27370;42.764;23.432;2024-03-29T03:16:09;38.03;;;14.18;;
41685;SDS011;27370;42.764;23.432;2024-03-29T03:18:34;28.65;;;11.20;;
41685;SDS011;27370;42.764;23.432;2024-03-29T03:21:00;3.85;;;1.17;;
41685;SDS011;27370;42.764;23.432;2024-03-29T03:23:26;2.63;;;0.93;;
41685;SDS011;27370;42.764;23.432;2024-03-29T03:25:56;2.42;;;1.45;;
41685;SDS011;27370;42.764;23.432;2024-03-29T03:28:22;5.70;;;2.10;;
41685;SDS011;27370;42.764;23.432;2024-03-29T03:30:49;7.10;;;2.58;;
41685;SDS011;27370;42.764;23.432;2024-03-29T03:33:14;8.32;;;3.03;;
41685;SDS011;27370;42.764;23.432;2024-03-29T03:35:40;9.07;;;2.78;;
41685;SDS011;27370;42.764;23.432;2024-03-29T03:38:07;3.50;;;1.77;;
41685;SDS011;27370;42.764;23.432;2024-03-29T03:40:33;8.10;;;1.55;;
41685;SDS011;27370;42.764;23.432;2024-03-29T03:42:59;9.43;;;1.77;;
41685;SDS011;27370;42.764;23.432;2024-03-29T03:45:24;3.63;;;1.77;;
41685;SDS011;27370;42.764;23.432;2024-03-29T03:47:49;5.03;;;1.40;;
41685;SDS011;27370;42.764;23.432;2024-03-29T03:50:15;7.55;;;1.40;;
41685;SDS011;27370;42.764;23.432;2024-03-29T03:52:40;10.77;;;2.22;;
41685;SDS011;27370;42.764;23.432;2024-03-29T03:55:06;7.95;;;1.98;;
41685;SDS011;27370;42.764;23.432;2024-03-29T03:57:32;4.93;;;3.25;;
41685;SDS011;27370;42.764;23.432;2024-03-29T03:59:59;5.20;;;1.60;;
41685;SDS011;27370;42.764;23.432;2024-03-29T04:02:24;13.05;;;1.85;;
41685;SDS011;27370;42.764;23.432;2024-03-29T04:04:50;2.08;;;1.40;;
41685;SDS011;27370;42.764;23.432;2024-03-29T04:07:15;9.85;;;2.75;;
41685;SDS011;27370;42.764;23.432;2024-03-29T04:09:41;5.00;;;1.50;;
41685;SDS011;27370;42.764;23.432;2024-03-29T04:12:06;6.60;;;1.52;;
41685;SDS011;27370;42.764;23.432;2024-03-29T04:14:32;4.00;;;1.80;;
41685;SDS011;27370;42.764;23.432;2024-03-29T04:16:57;8.18;;;2.22;;
41685;SDS011;27370;42.764;23.432;2024-03-29T04:19:23;10.35;;;2.90;;
41685;SDS011;27370;42.764;23.432;2024-03-29T04:21:48;6.22;;;1.88;;
41685;SDS011;27370;42.764;23.432;2024-03-29T04:24:14;5.55;;;2.10;;
41685;SDS011;27370;42.764;23.432;2024-03-29T04:26:39;3.80;;;1.52;;
41685;SDS011;27370;42.764;23.432;2024-03-29T04:29:05;5.53;;;1.73;;
41685;SDS011;27370;42.764;23.432;2024-03-29T04:31:30;16.60;;;5.20;;
41685;SDS011;27370;42.764;23.432;2024-03-29T04:33:56;15.00;;;3.60;;
41685;SDS011;27370;42.764;23.432;2024-03-29T04:36:22;11.60;;;4.47;;
41685;SDS011;27370;42.764;23.432;2024-03-29T04:38:47;17.92;;;3.50;;
41685;SDS011;27370;42.764;23.432;2024-03-29T04:41:13;11.82;;;3.85;;
41685;SDS011;27370;42.764;23.432;2024-03-29T04:43:39;4.57;;;2.30;;
41685;SDS011;27370;42.764;23.432;2024-03-29T04:46:09;5.10;;;0.90;;
41685;SDS011;27370;42.764;23.432;2024-03-29T04:48:36;8.18;;;2.97;;
41685;SDS011;27370;42.764;23.432;2024-03-29T04:51:02;10.90;;;6.45;;
41685;SDS011;27370;42.764;23.432;2024-03-29T04:53:28;11.73;;;5.72;;
41685;SDS011;27370;42.764;23.432;2024-03-29T04:55:54;5.18;;;2.20;;
41685;SDS011;27370;42.764;23.432;2024-03-29T04:58:21;4.70;;;1.92;;
41685;SDS011;27370;42.764;23.432;2024-03-29T05:00:53;11.07;;;3.85;;
41685;SDS011;27370;42.764;23.432;2024-03-29T05:03:19;32.08;;;19.00;;
41685;SDS011;27370;42.764;23.432;2024-03-29T05:05:46;60.35;;;34.47;;
41685;SDS011;27370;42.764;23.432;2024-03-29T05:08:11;32.08;;;14.18;;
41685;SDS011;27370;42.764;23.432;2024-03-29T05:10:38;6.15;;;3.80;;
41685;SDS011;27370;42.764;23.432;2024-03-29T05:13:04;4.35;;;2.00;;
41685;SDS011;27370;42.764;23.432;2024-03-29T05:15:30;5.10;;;1.15;;
41685;SDS011;27370;42.764;23.432;2024-03-29T05:17:56;14.13;;;1.50;;
41685;SDS011;27370;42.764;23.432;2024-03-29T05:20:21;8.52;;;1.83;;
41685;SDS011;27370;42.764;23.432;2024-03-29T05:22:47;5.45;;;1.77;;
41685;SDS011;27370;42.764;23.432;2024-03-29T05:25:12;8.82;;;2.17;;
41685;SDS011;27370;42.764;23.432;2024-03-29T05:27:38;6.60;;;3.78;;
41685;SDS011;27370;42.764;23.432;2024-03-29T05:30:03;9.20;;;2.92;;
41685;SDS011;27370;42.764;23.432;2024-03-29T05:32:29;4.28;;;2.40;;
41685;SDS011;27370;42.764;23.432;2024-03-29T05:34:55;14.73;;;2.33;;
41685;SDS011;27370;42.764;23.432;2024-03-29T05:37:21;6.32;;;2.90;;
41685;SDS011;27370;42.764;23.432;2024-03-29T05:39:50;5.95;;;2.20;;
41685;SDS011;27370;42.764;23.432;2024-03-29T05:42:24;7.28;;;2.80;;
41685;SDS011;27370;42.764;23.432;2024-03-29T05:44:52;6.50;;;3.53;;
41685;SDS011;27370;42.764;23.432;2024-03-29T05:47:17;6.20;;;2.92;;
41685;SDS011;27370;42.764;23.432;2024-03-29T05:49:43;5.68;;;2.47;;
41685;SDS011;27370;42.764;23.432;2024-03-29T05:52:08;5.00;;;2.40;;
41685;SDS011;27370;42.764;23.432;2024-03-29T05:54:34;4.22;;;1.80;;
41685;SDS011;27370;42.764;23.432;2024-03-29T05:56:59;6.10;;;2.95;;
41685;SDS011;27370;42.764;23.432;2024-03-29T05:59:25;6.18;;;1.90;;
41685;SDS011;27370;42.764;23.432;2024-03-29T06:01:50;5.07;;;2.00;;
41685;SDS011;27370;42.764;23.432;2024-03-29T06:04:16;6.47;;;2.03;;
41685;SDS011;27370;42.764;23.432;2024-03-29T06:06:44;4.93;;;2.60;;
41685;SDS011;27370;42.764;23.432;2024-03-29T06:09:10;7.70;;;2.47;;
41685;SDS011;27370;42.764;23.432;2024-03-29T06:11:35;7.07;;;3.60;;
41685;SDS011;27370;42.764;23.432;2024-03-29T06:14:01;3.55;;;2.63;;
41685;SDS011;27370;42.764;23.432;2024-03-29T06:16:27;5.78;;;3.03;;
41685;SDS011;27370;42.764;23.432;2024-03-29T06:19:11;6.35;;;2.20;;
41685;SDS011;27370;42.764;23.432;2024-03-29T06:21:37;6.85;;;2.58;;
41685;SDS011;27370;42.764;23.432;2024-03-29T06:24:07;5.95;;;1.98;;
41685;SDS011;27370;42.764;23.432;2024-03-29T06:26:34;8.02;;;3.28;;
41685;SDS011;27370;42.764;23.432;2024-03-29T06:29:02;7.40;;;3.13;;
41685;SDS011;27370;42.764;23.432;2024-03-29T06:31:28;7.13;;;2.83;;
41685;SDS011;27370;42.764;23.432;2024-03-29T06:33:54;3.58;;;2.13;;
41685;SDS011;27370;42.764;23.432;2024-03-29T06:36:20;5.20;;;1.60;;
41685;SDS011;27370;42.764;23.432;2024-03-29T06:38:45;7.60;;;2.60;;
41685;SDS011;27370;42.764;23.432;2024-03-29T06:41:11;5.55;;;1.88;;
41685;SDS011;27370;42.764;23.432;2024-03-29T06:43:37;4.60;;;1.60;;
41685;SDS011;27370;42.764;23.432;2024-03-29T06:46:03;7.18;;;2.03;;
41685;SDS011;27370;42.764;23.432;2024-03-29T06:48:29;3.78;;;1.30;;
41685;SDS011;27370;42.764;23.432;2024-03-29T06:50:56;5.85;;;2.00;;
41685;SDS011;27370;42.764;23.432;2024-03-29T06:53:23;5.88;;;1.40;;
41685;SDS011;27370;42.764;23.432;2024-03-29T06:55:49;5.63;;;1.35;;
41685;SDS011;27370;42.764;23.432;2024-03-29T06:58:14;4.45;;;1.52;;
41685;SDS011;27370;42.764;23.432;2024-03-29T07:00:40;3.10;;;1.30;;
41685;SDS011;27370;42.764;23.432;2024-03-29T07:03:06;6.95;;;1.58;;
41685;SDS011;27370;42.764;23.432;2024-03-29T07:05:32;5.30;;;1.50;;
41685;SDS011;27370;42.764;23.432;2024-03-29T07:07:57;6.32;;;1.40;;
41685;SDS011;27370;42.764;23.432;2024-03-29T07:10:24;8.00;;;1.73;;
41685;SDS011;27370;42.764;23.432;2024-03-29T07:12:50;5.47;;;1.67;;
41685;SDS011;27370;42.764;23.432;2024-03-29T07:15:15;7.72;;;1.55;;
41685;SDS011;27370;42.764;23.432;2024-03-29T07:17:41;3.90;;;1.45;;
41685;SDS011;27370;42.764;23.432;2024-03-29T07:20:08;4.68;;;1.30;;
41685;SDS011;27370;42.764;23.432;2024-03-29T07:22:34;4.00;;;1.40;;
41685;SDS011;27370;42.764;23.432;2024-03-29T07:25:00;10.85;;;1.70;;
41685;SDS011;27370;42.764;23.432;2024-03-29T07:27:25;3.28;;;1.55;;
41685;SDS011;27370;42.764;23.432;2024-03-29T07:29:53;4.53;;;1.42;;
41685;SDS011;27370;42.764;23.432;2024-03-29T07:32:18;3.05;;;0.95;;
41685;SDS011;27370;42.764;23.432;2024-03-29T07:34:44;4.53;;;1.02;;
41685;SDS011;27370;42.764;23.432;2024-03-29T07:37:09;2.25;;;1.10;;
41685;SDS011;27370;42.764;23.432;2024-03-29T07:39:40;5.07;;;1.75;;
41685;SDS011;27370;42.764;23.432;2024-03-29T07:42:06;3.13;;;0.82;;
41685;SDS011;27370;42.764;23.432;2024-03-29T07:44:33;5.55;;;0.85;;
41685;SDS011;27370;42.764;23.432;2024-03-29T07:46:58;1.63;;;0.63;;
41685;SDS011;27370;42.764;23.432;2024-03-29T07:49:24;1.83;;;1.20;;
41685;SDS011;27370;42.764;23.432;2024-03-29T07:51:49;3.72;;;0.93;;
41685;SDS011;27370;42.764;23.432;2024-03-29T07:54:15;1.98;;;0.60;;
41685;SDS011;27370;42.764;23.432;2024-03-29T07:56:40;2.50;;;0.93;;
41685;SDS011;27370;42.764;23.432;2024-03-29T07:59:06;2.83;;;0.70;;
41685;SDS011;27370;42.764;23.432;2024-03-29T08:01:31;3.85;;;0.75;;
41685;SDS011;27370;42.764;23.432;2024-03-29T08:03:57;3.38;;;0.60;;
41685;SDS011;27370;42.764;23.432;2024-03-29T08:06:22;1.70;;;0.52;;
41685;SDS011;27370;42.764;23.432;2024-03-29T08:08:48;5.68;;;0.88;;
41685;SDS011;27370;42.764;23.432;2024-03-29T08:11:14;1.63;;;0.40;;
41685;SDS011;27370;42.764;23.432;2024-03-29T08:13:40;1.40;;;0.60;;
41685;SDS011;27370;42.764;23.432;2024-03-29T08:16:06;2.67;;;0.85;;
41685;SDS011;27370;42.764;23.432;2024-03-29T08:18:32;1.40;;;0.47;;
41685;SDS011;27370;42.764;23.432;2024-03-29T08:20:58;0.65;;;0.38;;
41685;SDS011;27370;42.764;23.432;2024-03-29T08:23:24;3.15;;;0.70;;
41685;SDS011;27370;42.764;23.432;2024-03-29T08:25:50;13.27;;;1.30;;
41685;SDS011;27370;42.764;23.432;2024-03-29T08:28:19;1.77;;;0.43;;
41685;SDS011;27370;42.764;23.432;2024-03-29T08:30:45;1.80;;;0.70;;
41685;SDS011;27370;42.764;23.432;2024-03-29T08:33:11;3.45;;;0.52;;
41685;SDS011;27370;42.764;23.432;2024-03-29T08:35:37;3.88;;;0.50;;
41685;SDS011;27370;42.764;23.432;2024-03-29T08:38:02;1.80;;;0.47;;
41685;SDS011;27370;42.764;23.432;2024-03-29T08:40:28;2.85;;;0.75;;
41685;SDS011;27370;42.764;23.432;2024-03-29T08:42:54;2.72;;;0.85;;
41685;SDS011;27370;42.764;23.432;2024-03-29T08:45:21;0.63;;;0.22;;
41685;SDS011;27370;42.764;23.432;2024-03-29T08:47:46;6.38;;;0.73;;
41685;SDS011;27370;42.764;23.432;2024-03-29T08:50:12;1.65;;;0.45;;
41685;SDS011;27370;42.764;23.432;2024-03-29T08:52:39;2.42;;;0.40;;
41685;SDS011;27370;42.764;23.432;2024-03-29T08:55:05;3.03;;;0.65;;
41685;SDS011;27370;42.764;23.432;2024-03-29T08:57:34;2.83;;;0.47;;
41685;SDS011;27370;42.764;23.432;2024-03-29T09:00:00;1.45;;;0.55;;
41685;SDS011;27370;42.764;23.432;2024-03-29T09:02:25;2.95;;;0.50;;
41685;SDS011;27370;42.764;23.432;2024-03-29T09:04:51;2.63;;;0.55;;
41685;SDS011;27370;42.764;23.432;2024-03-29T09:07:16;5.80;;;1.25;;
41685;SDS011;27370;42.764;23.432;2024-03-29T09:09:42;7.60;;;0.82;;
41685;SDS011;27370;42.764;23.432;2024-03-29T09:12:08;2.10;;;0.50;;
41685;SDS011;27370;42.764;23.432;2024-03-29T09:14:34;1.30;;;0.50;;
41685;SDS011;27370;42.764;23.432;2024-03-29T09:16:59;4.72;;;0.63;;
41685;SDS011;27370;42.764;23.432;2024-03-29T09:19:25;5.45;;;0.70;;
41685;SDS011;27370;42.764;23.432;2024-03-29T09:21:50;1.85;;;0.68;;
41685;SDS011;27370;42.764;23.432;2024-03-29T09:24:16;1.73;;;0.40;;
41685;SDS011;27370;42.764;23.432;2024-03-29T09:26:42;6.80;;;0.57;;
41685;SDS011;27370;42.764;23.432;2024-03-29T09:29:08;7.38;;;0.50;;
41685;SDS011;27370;42.764;23.432;2024-03-29T09:31:34;4.15;;;0.80;;
41685;SDS011;27370;42.764;23.432;2024-03-29T09:34:00;1.70;;;0.55;;
41685;SDS011;27370;42.764;23.432;2024-03-29T09:36:26;3.10;;;0.75;;
41685;SDS011;27370;42.764;23.432;2024-03-29T09:38:51;2.17;;;0.40;;
41685;SDS011;27370;42.764;23.432;2024-03-29T09:41:18;2.35;;;0.85;;
41685;SDS011;27370;42.764;23.432;2024-03-29T09:43:45;2.42;;;0.60;;
41685;SDS011;27370;42.764;23.432;2024-03-29T09:46:14;3.88;;;0.63;;
41685;SDS011;27370;42.764;23.432;2024-03-29T09:48:41;2.78;;;0.95;;
41685;SDS011;27370;42.764;23.432;2024-03-29T09:51:07;3.00;;;0.38;;
41685;SDS011;27370;42.764;23.432;2024-03-29T09:53:34;1.40;;;0.63;;
41685;SDS011;27370;42.764;23.432;2024-03-29T09:56:02;3.83;;;0.98;;
41685;SDS011;27370;42.764;23.432;2024-03-29T09:58:34;5.43;;;0.65;;
41685;SDS011;27370;42.764;23.432;2024-03-29T10:03:40;2.78;;;0.60;;
41685;SDS011;27370;42.764;23.432;2024-03-29T10:06:06;6.32;;;0.60;;
41685;SDS011;27370;42.764;23.432;2024-03-29T10:08:37;2.92;;;0.50;;
41685;SDS011;27370;42.764;23.432;2024-03-29T10:11:02;0.90;;;0.60;;
41685;SDS011;27370;42.764;23.432;2024-03-29T10:13:28;2.60;;;0.88;;
41685;SDS011;27370;42.764;23.432;2024-03-29T10:15:54;3.40;;;0.75;;
41685;SDS011;27370;42.764;23.432;2024-03-29T10:18:23;4.22;;;0.88;;
41685;SDS011;27370;42.764;23.432;2024-03-29T10:23:28;2.72;;;0.60;;
41685;SDS011;27370;42.764;23.432;2024-03-29T10:25:54;2.78;;;0.60;;
41685;SDS011;27370;42.764;23.432;2024-03-29T10:28:20;2.40;;;0.68;;
41685;SDS011;27370;42.764;23.432;2024-03-29T10:30:45;0.90;;;0.38;;
41685;SDS011;27370;42.764;23.432;2024-03-29T10:33:13;2.60;;;0.65;;
41685;SDS011;27370;42.764;23.432;2024-03-29T10:35:42;2.78;;;0.60;;
41685;SDS011;27370;42.764;23.432;2024-03-29T10:38:11;1.55;;;0.45;;
41685;SDS011;27370;42.764;23.432;2024-03-29T10:40:40;3.22;;;0.85;;
41685;SDS011;27370;42.764;23.432;2024-03-29T10:43:08;2.42;;;0.68;;
41685;SDS011;27370;42.764;23.432;2024-03-29T10:45:37;3.40;;;0.85;;
41685;SDS011;27370;42.764;23.432;2024-03-29T10:48:03;2.55;;;0.70;;
41685;SDS011;27370;42.764;23.432;2024-03-29T10:50:34;4.20;;;0.65;;
41685;SDS011;27370;42.764;23.432;2024-03-29T10:53:00;3.05;;;0.65;;
41685;SDS011;27370;42.764;23.432;2024-03-29T10:55:27;3.72;;;1.15;;
41685;SDS011;27370;42.764;23.432;2024-03-29T10:57:55;4.63;;;1.00;;
41685;SDS011;27370;42.764;23.432;2024-03-29T11:00:20;3.53;;;0.93;;
41685;SDS011;27370;42.764;23.432;2024-03-29T11:05:12;3.35;;;0.93;;
41685;SDS011;27370;42.764;23.432;2024-03-29T11:07:40;2.03;;;0.80;;
41685;SDS011;27370;42.764;23.432;2024-03-29T11:10:09;5.18;;;1.05;;
41685;SDS011;27370;42.764;23.432;2024-03-29T11:12:45;5.28;;;1.45;;
41685;SDS011;27370;42.764;23.432;2024-03-29T11:15:22;3.45;;;0.80;;
41685;SDS011;27370;42.764;23.432;2024-03-29T11:17:54;2.40;;;0.50;;
41685;SDS011;27370;42.764;23.432;2024-03-29T11:20:20;1.77;;;0.63;;
41685;SDS011;27370;42.764;23.432;2024-03-29T11:22:55;1.38;;;0.60;;
41685;SDS011;27370;42.764;23.432;2024-03-29T11:25:20;4.43;;;0.80;;
41685;SDS011;27370;42.764;23.432;2024-03-29T11:27:47;3.15;;;0.65;;
41685;SDS011;27370;42.764;23.432;2024-03-29T11:30:16;3.53;;;0.70;;
41685;SDS011;27370;42.764;23.432;2024-03-29T11:32:43;3.85;;;0.95;;
41685;SDS011;27370;42.764;23.432;2024-03-29T11:35:15;2.75;;;0.60;;
41685;SDS011;27370;42.764;23.432;2024-03-29T11:37:41;6.28;;;0.90;;
41685;SDS011;27370;42.764;23.432;2024-03-29T11:40:10;2.15;;;0.55;;
41685;SDS011;27370;42.764;23.432;2024-03-29T11:42:36;3.67;;;1.10;;
41685;SDS011;27370;42.764;23.432;2024-03-29T11:45:03;3.95;;;0.88;;
41685;SDS011;27370;42.764;23.432;2024-03-29T11:47:29;2.33;;;0.65;;
41685;SDS011;27370;42.764;23.432;2024-03-29T11:49:55;3.55;;;0.73;;
41685;SDS011;27370;42.764;23.432;2024-03-29T11:52:25;5.22;;;1.00;;
41685;SDS011;27370;42.764;23.432;2024-03-29T11:54:53;3.20;;;0.70;;
41685;SDS011;27370;42.764;23.432;2024-03-29T11:57:19;5.68;;;0.88;;
41685;SDS011;27370;42.764;23.432;2024-03-29T11:59:44;5.07;;;0.90;;
41685;SDS011;27370;42.764;23.432;2024-03-29T12:02:10;5.53;;;0.98;;
41685;SDS011;27370;42.764;23.432;2024-03-29T12:04:41;4.78;;;0.90;;
41685;SDS011;27370;42.764;23.432;2024-03-29T12:07:07;1.58;;;0.70;;
41685;SDS011;27370;42.764;23.432;2024-03-29T12:09:32;2.97;;;0.70;;
41685;SDS011;27370;42.764;23.432;2024-03-29T12:11:58;1.27;;;0.70;;
41685;SDS011;27370;42.764;23.432;2024-03-29T12:14:28;2.80;;;0.90;;
41685;SDS011;27370;42.764;23.432;2024-03-29T12:17:00;2.50;;;0.68;;
41685;SDS011;27370;42.764;23.432;2024-03-29T12:19:25;2.88;;;0.80;;
41685;SDS011;27370;42.764;23.432;2024-03-29T12:21:52;1.85;;;1.00;;
41685;SDS011;27370;42.764;23.432;2024-03-29T12:24:18;2.30;;;0.70;;
41685;SDS011;27370;42.764;23.432;2024-03-29T12:26:44;2.60;;;0.65;;
41685;SDS011;27370;42.764;23.432;2024-03-29T12:29:09;2.70;;;0.70;;
41685;SDS011;27370;42.764;23.432;2024-03-29T12:31:35;1.60;;;0.43;;
41685;SDS011;27370;42.764;23.432;2024-03-29T12:34:02;2.35;;;0.45;;
41685;SDS011;27370;42.764;23.432;2024-03-29T12:36:29;3.00;;;0.70;;
41685;SDS011;27370;42.764;23.432;2024-03-29T12:38:56;4.68;;;1.67;;
41685;SDS011;27370;42.764;23.432;2024-03-29T12:43:53;5.72;;;1.30;;
41685;SDS011;27370;42.764;23.432;2024-03-29T12:46:19;3.35;;;0.70;;
41685;SDS011;27370;42.764;23.432;2024-03-29T12:48:44;3.80;;;0.85;;
41685;SDS011;27370;42.764;23.432;2024-03-29T12:51:10;2.13;;;0.85;;
41685;SDS011;27370;42.764;23.432;2024-03-29T12:53:38;1.58;;;0.47;;
41685;SDS011;27370;42.764;23.432;2024-03-29T12:56:04;1.85;;;0.88;;
41685;SDS011;27370;42.764;23.432;2024-03-29T12:58:29;4.80;;;1.00;;
41685;SDS011;27370;42.764;23.432;2024-03-29T13:00:55;5.35;;;0.90;;
41685;SDS011;27370;42.764;23.432;2024-03-29T13:03:20;4.10;;;1.80;;
41685;SDS011;27370;42.764;23.432;2024-03-29T13:05:46;2.55;;;0.75;;
41685;SDS011;27370;42.764;23.432;2024-03-29T13:08:12;2.60;;;0.57;;
41685;SDS011;27370;42.764;23.432;2024-03-29T13:10:40;2.72;;;0.60;;
41685;SDS011;27370;42.764;23.432;2024-03-29T13:13:06;2.75;;;0.50;;
41685;SDS011;27370;42.764;23.432;2024-03-29T13:15:33;1.75;;;0.60;;
41685;SDS011;27370;42.764;23.432;2024-03-29T13:17:59;1.77;;;0.60;;
41685;SDS011;27370;42.764;23.432;2024-03-29T13:20:25;1.67;;;0.40;;
41685;SDS011;27370;42.764;23.432;2024-03-29T13:22:51;2.78;;;0.70;;
41685;SDS011;27370;42.764;23.432;2024-03-29T13:25:17;2.50;;;0.85;;
41685;SDS011;27370;42.764;23.432;2024-03-29T13:27:44;9.07;;;0.68;;
41685;SDS011;27370;42.764;23.432;2024-03-29T13:30:11;3.20;;;0.73;;
41685;SDS011;27370;42.764;23.432;2024-03-29T13:32:38;2.60;;;0.80;;
41685;SDS011;27370;42.764;23.432;2024-03-29T13:35:04;3.65;;;0.90;;
41685;SDS011;27370;42.764;23.432;2024-03-29T13:37:33;1.25;;;0.43;;
41685;SDS011;27370;42.764;23.432;2024-03-29T13:39:58;2.83;;;0.60;;
41685;SDS011;27370;42.764;23.432;2024-03-29T13:42:24;1.27;;;0.52;;
41685;SDS011;27370;42.764;23.432;2024-03-29T13:44:50;4.45;;;0.50;;
41685;SDS011;27370;42.764;23.432;2024-03-29T13:47:16;2.42;;;0.65;;
41685;SDS011;27370;42.764;23.432;2024-03-29T13:49:43;4.55;;;1.00;;
41685;SDS011;27370;42.764;23.432;2024-03-29T13:52:09;3.20;;;0.88;;
41685;SDS011;27370;42.764;23.432;2024-03-29T13:54:34;3.97;;;0.77;;
41685;SDS011;27370;42.764;23.432;2024-03-29T13:57:00;5.20;;;0.63;;
41685;SDS011;27370;42.764;23.432;2024-03-29T13:59:26;4.10;;;0.80;;
41685;SDS011;27370;42.764;23.432;2024-03-29T14:01:52;2.15;;;0.50;;
41685;SDS011;27370;42.764;23.432;2024-03-29T14:04:18;1.75;;;0.90;;
41685;SDS011;27370;42.764;23.432;2024-03-29T14:06:43;1.95;;;0.57;;
41685;SDS011;27370;42.764;23.432;2024-03-29T14:09:09;2.33;;;0.60;;
41685;SDS011;27370;42.764;23.432;2024-03-29T14:11:34;4.88;;;0.68;;
41685;SDS011;27370;42.764;23.432;2024-03-29T14:14:00;5.47;;;2.35;;
41685;SDS011;27370;42.764;23.432;2024-03-29T14:16:25;3.35;;;0.65;;
41685;SDS011;27370;42.764;23.432;2024-03-29T14:18:51;1.40;;;0.52;;
41685;SDS011;27370;42.764;23.432;2024-03-29T14:21:16;1.25;;;0.43;;
41685;SDS011;27370;42.764;23.432;2024-03-29T14:23:42;2.17;;;0.77;;
41685;SDS011;27370;42.764;23.432;2024-03-29T14:26:07;3.42;;;1.13;;
41685;SDS011;27370;42.764;23.432;2024-03-29T14:28:32;2.58;;;0.47;;
41685;SDS011;27370;42.764;23.432;2024-03-29T14:30:58;2.15;;;1.15;;
41685;SDS011;27370;42.764;23.432;2024-03-29T14:33:23;2.20;;;0.70;;
41685;SDS011;27370;42.764;23.432;2024-03-29T14:35:49;1.00;;;0.55;;
41685;SDS011;27370;42.764;23.432;2024-03-29T14:38:15;2.53;;;0.70;;